Time;durP1;ratioP1;P1;durP2;ratioP2;P2;SDS_P1;SDS_P2;PMS_P1;PMS_P2;Temp;Humidity;BMP_temperature;BMP_pressure;BME280_temperature;BME280_humidity;BME280_pressure;Samples;Min_cycle;Max_cycle;Signal;HPM_P1;HPM_P2
2021/06/28 00:00:09;;;;;;;6.60;3.55;;;22.90;66.20;;;;;;5036415;28;20112;-65
2021/06/28 00:02:35;;;;;;;6.53;3.83;;;22.90;67.10;;;;;;5054440;28;20025;-65
2021/06/28 00:05:01;;;;;;;6.63;4.40;;;22.90;67.40;;;;;;5054234;28;20526;-65
2021/06/28 00:07:27;;;;;;;7.50;4.05;;;22.90;66.30;;;;;;5036078;28;20025;-66
2021/06/28 00:09:52;;;;;;;6.63;4.10;;;22.90;67.50;;;;;;5054201;28;20104;-65
2021/06/28 00:12:18;;;;;;;7.45;4.10;;;22.70;67.60;;;;;;5054329;28;20600;-65
2021/06/28 00:14:43;;;;;;;7.38;4.25;;;22.70;67.70;;;;;;5036223;28;20504;-66
2021/06/28 00:17:09;;;;;;;6.55;4.45;;;22.70;68.30;;;;;;5036052;28;20071;-65
2021/06/28 00:19:34;;;;;;;6.65;4.40;;;22.70;68.10;;;;;;5054007;28;20118;-65
2021/06/28 00:22:00;;;;;;;6.95;4.30;;;22.80;67.80;;;;;;5054001;28;20043;-65
2021/06/28 00:24:25;;;;;;;7.30;4.28;;;22.80;67.80;;;;;;5036094;28;20090;-66
2021/06/28 00:26:51;;;;;;;7.65;4.15;;;22.70;67.60;;;;;;5035912;28;20083;-64
2021/06/28 00:29:16;;;;;;;6.40;4.30;;;22.50;68.70;;;;;;5035935;28;20025;-65
2021/06/28 00:31:42;;;;;;;8.13;4.63;;;22.40;69.40;;;;;;5035942;28;20017;-66
2021/06/28 00:34:07;;;;;;;6.55;4.32;;;22.30;70.40;;;;;;5035927;28;20029;-66
2021/06/28 00:36:33;;;;;;;6.70;4.55;;;22.40;69.70;;;;;;5053798;28;20429;-65
2021/06/28 00:38:59;;;;;;;7.35;4.40;;;22.50;69.20;;;;;;5053551;28;20037;-65
2021/06/28 00:41:25;;;;;;;7.85;4.38;;;22.40;69.90;;;;;;5053668;28;20502;-65
2021/06/28 00:43:50;;;;;;;6.35;4.20;;;22.40;70.00;;;;;;5053599;28;20033;-65
2021/06/28 00:46:16;;;;;;;7.38;4.43;;;22.50;70.00;;;;;;5053595;28;20036;-66
2021/06/28 00:48:42;;;;;;;7.53;4.60;;;22.60;69.50;;;;;;5035356;28;20017;-65
2021/06/28 00:51:07;;;;;;;6.25;4.35;;;22.60;69.10;;;;;;5035618;28;20111;-65
2021/06/28 00:53:33;;;;;;;7.28;4.38;;;22.60;68.90;;;;;;5053542;28;20478;-65
2021/06/28 00:56:11;;;;;;;6.55;4.15;;;22.60;69.30;;;;;;5053492;28;20053;-66
2021/06/28 00:58:41;;;;;;;6.18;4.22;;;22.60;68.80;;;;;;5035274;28;20405;-64
2021/06/28 01:01:07;;;;;;;6.28;4.57;;;22.70;68.80;;;;;;5053168;28;20064;-65
2021/06/28 01:03:34;;;;;;;6.18;4.10;;;22.60;68.60;;;;;;5053310;28;20028;-66
2021/06/28 01:06:00;;;;;;;6.68;4.35;;;22.50;68.80;;;;;;5053231;28;20036;-66
2021/06/28 01:08:26;;;;;;;8.02;4.43;;;22.40;69.40;;;;;;5052957;28;20014;-65
2021/06/28 01:10:52;;;;;;;7.65;5.07;;;22.30;69.80;;;;;;5035291;28;20025;-63
2021/06/28 01:13:18;;;;;;;7.45;4.80;;;22.20;70.40;;;;;;5035142;28;20029;-66
2021/06/28 01:15:44;;;;;;;6.88;4.53;;;22.20;71.00;;;;;;5052949;28;20068;-66
2021/06/28 01:18:09;;;;;;;6.50;4.53;;;22.20;70.90;;;;;;5052182;28;20017;-66
2021/06/28 01:20:36;;;;;;;6.40;4.13;;;22.30;70.60;;;;;;5052889;28;20417;-67
2021/06/28 01:23:24;;;;;;;6.93;4.78;;;22.40;70.30;;;;;;5052882;28;20083;-66
2021/06/28 01:26:00;;;;;;;6.57;4.43;;;22.40;70.70;;;;;;5035023;28;20032;-66
2021/06/28 01:28:26;;;;;;;7.25;4.88;;;22.40;71.10;;;;;;5052533;28;20021;-65
2021/06/28 01:30:53;;;;;;;7.47;4.60;;;22.40;71.20;;;;;;5034806;28;20029;-66
2021/06/28 01:33:19;;;;;;;7.03;4.20;;;22.40;71.50;;;;;;5051050;28;20013;-65
2021/06/28 01:35:46;;;;;;;7.20;4.88;;;22.40;71.60;;;;;;5034745;28;20043;-65
2021/06/28 01:38:11;;;;;;;7.57;4.85;;;22.40;71.60;;;;;;5051473;28;20064;-65
2021/06/28 01:40:38;;;;;;;9.40;4.60;;;22.50;71.60;;;;;;5033916;28;20083;-65
2021/06/28 01:43:05;;;;;;;6.40;4.45;;;22.40;71.40;;;;;;5052518;28;20035;-65
2021/06/28 01:45:31;;;;;;;8.57;4.50;;;22.50;71.60;;;;;;5052483;28;20494;-65
2021/06/28 01:47:58;;;;;;;7.03;4.50;;;22.40;71.70;;;;;;5052178;28;20021;-65
2021/06/28 01:50:29;;;;;;;6.82;4.47;;;22.40;71.90;;;;;;5052324;28;20474;-64
2021/06/28 01:52:55;;;;;;;;;;;22.40;71.90;;;;;;5052882;28;20032;-65
2021/06/28 01:55:21;;;;;;;7.55;4.35;;;22.50;72.00;;;;;;5052207;28;20334;-65
2021/06/28 01:57:56;;;;;;;7.85;4.88;;;22.50;72.00;;;;;;5051937;28;20029;-65
2021/06/28 02:00:28;;;;;;;6.30;4.10;;;22.50;72.00;;;;;;5052190;28;20036;-64
2021/06/28 02:03:17;;;;;;;6.38;4.00;;;22.40;71.80;;;;;;5034343;28;20120;-65
2021/06/28 02:05:48;;;;;;;7.72;4.55;;;22.40;71.80;;;;;;5052104;28;20523;-65
2021/06/28 02:08:16;;;;;;;7.07;4.25;;;22.40;72.00;;;;;;5034020;28;20021;-65
2021/06/28 02:10:46;;;;;;;6.03;4.13;;;22.40;71.90;;;;;;5051953;28;20025;-65
2021/06/28 02:13:12;;;;;;;6.85;4.63;;;22.50;71.90;;;;;;5034210;28;20115;-65
2021/06/28 02:15:37;;;;;;;7.47;4.63;;;22.50;72.10;;;;;;5051990;28;20071;-65
2021/06/28 02:18:03;;;;;;;8.27;4.45;;;22.50;71.90;;;;;;5051636;28;20025;-66
2021/06/28 02:20:30;;;;;;;9.80;4.47;;;22.50;72.10;;;;;;5051922;28;20028;-66
2021/06/28 02:23:23;;;;;;;7.65;4.55;;;22.50;72.70;;;;;;5051886;28;20043;-64
2021/06/28 02:25:58;;;;;;;6.40;4.10;;;22.50;72.50;;;;;;5033183;28;20039;-65
2021/06/28 02:28:26;;;;;;;7.88;4.30;;;22.50;71.70;;;;;;5051492;28;20517;-65
2021/06/28 02:30:53;;;;;;;7.13;4.35;;;22.50;72.30;;;;;;5050747;28;20043;-66
2021/06/28 02:33:18;;;;;;;9.07;4.38;;;22.60;72.00;;;;;;5051753;28;20021;-66
2021/06/28 02:35:44;;;;;;;6.20;4.00;;;22.60;71.80;;;;;;5051726;28;20035;-65
2021/06/28 02:38:10;;;;;;;6.40;4.30;;;22.60;71.80;;;;;;5051350;28;20029;-66
2021/06/28 02:40:35;;;;;;;6.50;4.18;;;22.40;72.30;;;;;;5051442;28;20086;-65
2021/06/28 02:43:01;;;;;;;7.28;4.03;;;22.40;72.60;;;;;;5033716;28;20028;-65
2021/06/28 02:45:26;;;;;;;7.63;4.72;;;22.50;72.10;;;;;;5033473;28;20037;-63
2021/06/28 02:47:52;;;;;;;7.28;4.50;;;22.20;73.20;;;;;;5051264;28;20021;-65
2021/06/28 02:50:19;;;;;;;7.57;5.18;;;22.00;74.80;;;;;;5051482;28;20044;-65
2021/06/28 02:52:44;;;;;;;7.88;4.63;;;22.00;74.70;;;;;;5030328;28;20025;-65
2021/06/28 02:55:11;;;;;;;6.80;4.70;;;21.90;75.10;;;;;;5030079;28;20021;-65
2021/06/28 02:57:38;;;;;;;9.85;5.47;;;21.90;75.20;;;;;;5051124;28;20029;-65
2021/06/28 03:00:10;;;;;;;7.78;4.85;;;21.80;75.30;;;;;;5051443;28;20029;-65
2021/06/28 03:02:36;;;;;;;12.45;5.32;;;21.90;75.20;;;;;;5051506;28;20056;-65
2021/06/28 03:05:03;;;;;;;7.78;4.53;;;22.00;75.20;;;;;;5051350;28;20036;-63
2021/06/28 03:07:29;;;;;;;6.65;4.53;;;22.00;74.50;;;;;;5033187;28;20483;-66
2021/06/28 03:09:55;;;;;;;7.18;4.05;;;22.10;74.30;;;;;;5051131;28;20044;-66
2021/06/28 03:12:20;;;;;;;6.90;4.10;;;22.20;73.90;;;;;;5034760;28;20009;-67
2021/06/28 03:14:46;;;;;;;7.70;4.90;;;22.20;74.20;;;;;;5024642;28;20029;-65
2021/06/28 03:17:11;;;;;;;9.35;4.82;;;22.20;73.70;;;;;;5047376;28;20033;-65
2021/06/28 03:19:37;;;;;;;7.85;4.90;;;22.20;74.10;;;;;;5033218;28;20021;-66
2021/06/28 03:22:03;;;;;;;8.55;5.18;;;22.20;74.20;;;;;;5050973;28;20025;-65
2021/06/28 03:24:28;;;;;;;8.05;4.50;;;22.10;75.30;;;;;;5033035;28;20037;-65
2021/06/28 03:26:54;;;;;;;7.40;4.80;;;22.10;75.00;;;;;;5050862;28;20025;-63
2021/06/28 03:29:19;;;;;;;7.38;4.47;;;22.10;75.30;;;;;;5033277;28;20025;-65
2021/06/28 03:31:45;;;;;;;9.05;5.05;;;22.10;74.30;;;;;;5032981;28;20052;-66
2021/06/28 03:34:10;;;;;;;8.18;5.60;;;22.20;74.00;;;;;;5051324;28;20029;-65
2021/06/28 03:36:36;;;;;;;8.45;5.18;;;22.00;75.40;;;;;;5051014;28;20025;-65
2021/06/28 03:39:02;;;;;;;7.75;5.10;;;21.80;76.20;;;;;;5032728;28;20079;-65
2021/06/28 03:41:27;;;;;;;7.55;5.07;;;21.70;77.30;;;;;;5033394;28;20119;-65
2021/06/28 03:43:53;;;;;;;8.45;5.40;;;21.60;78.00;;;;;;5054685;28;20120;-65
2021/06/28 03:46:18;;;;;;;8.38;5.75;;;21.50;78.20;;;;;;5036252;28;20299;-65
2021/06/28 03:48:44;;;;;;;7.85;4.85;;;21.60;77.70;;;;;;5036348;28;20021;-65
2021/06/28 03:51:10;;;;;;;7.30;5.13;;;21.60;77.70;;;;;;5036526;28;20021;-65
2021/06/28 03:53:36;;;;;;;9.05;5.40;;;21.50;77.90;;;;;;5054339;28;20098;-66
2021/06/28 03:56:06;;;;;;;8.18;5.45;;;21.50;78.10;;;;;;5036625;28;20159;-63
2021/06/28 03:58:37;;;;;;;7.45;5.28;;;21.40;78.20;;;;;;5036545;28;20111;-65
2021/06/28 04:01:04;;;;;;;9.38;5.93;;;21.40;78.50;;;;;;5054349;28;20029;-65
2021/06/28 04:03:32;;;;;;;8.25;5.65;;;21.40;78.70;;;;;;5054221;28;20545;-65
2021/06/28 04:06:02;;;;;;;9.23;5.90;;;21.50;78.30;;;;;;5031680;28;20029;-65
2021/06/28 04:08:27;;;;;;;8.73;5.50;;;21.60;78.60;;;;;;5047514;28;20017;-65
2021/06/28 04:10:53;;;;;;;9.73;5.70;;;21.40;79.50;;;;;;5053021;28;20124;-65
2021/06/28 04:13:19;;;;;;;9.40;6.13;;;21.40;79.20;;;;;;5053186;28;20024;-65
2021/06/28 04:15:45;;;;;;;10.13;6.28;;;21.40;79.60;;;;;;5054183;28;20025;-66
2021/06/28 04:18:10;;;;;;;9.43;5.88;;;21.30;80.40;;;;;;5035928;28;20021;-65
2021/06/28 04:20:36;;;;;;;8.82;5.88;;;21.30;80.40;;;;;;5053824;28;20033;-62
2021/06/28 04:23:01;;;;;;;8.77;6.00;;;21.40;80.10;;;;;;5046603;28;20447;-66
2021/06/28 04:25:27;;;;;;;10.07;6.38;;;21.40;79.80;;;;;;5032768;28;20564;-66
2021/06/28 04:27:52;;;;;;;8.65;6.15;;;21.40;80.20;;;;;;5047268;28;20035;-65
2021/06/28 04:30:20;;;;;;;9.13;6.13;;;21.40;80.90;;;;;;5028723;28;20021;-65
2021/06/28 04:32:47;;;;;;;11.85;5.68;;;21.40;79.80;;;;;;5027626;28;20026;-63
2021/06/28 04:35:16;;;;;;;10.45;5.82;;;21.50;79.30;;;;;;5009340;28;20099;-64
2021/06/28 04:37:42;;;;;;;9.88;6.22;;;21.60;79.50;;;;;;5043276;28;20033;-65
2021/06/28 04:40:10;;;;;;;9.77;5.93;;;21.40;80.00;;;;;;5029231;28;20033;-65
2021/06/28 04:42:36;;;;;;;11.25;6.35;;;21.30;81.10;;;;;;5040306;28;20541;-63
2021/06/28 04:45:01;;;;;;;12.55;6.78;;;21.20;82.00;;;;;;5026614;28;20159;-65
2021/06/28 04:47:27;;;;;;;13.70;6.82;;;21.20;83.20;;;;;;5029334;28;20739;-65
2021/06/28 04:49:52;;;;;;;13.85;6.45;;;21.00;84.20;;;;;;5047005;28;20406;-67
2021/06/28 04:52:18;;;;;;;11.80;6.68;;;21.00;84.60;;;;;;5044489;28;20024;-67
2021/06/28 04:54:43;;;;;;;10.90;6.32;;;21.10;84.00;;;;;;5039780;28;20029;-67
2021/06/28 04:57:09;;;;;;;12.60;6.60;;;21.10;84.00;;;;;;5041299;28;20033;-66
2021/06/28 04:59:35;;;;;;;10.55;6.80;;;21.00;84.70;;;;;;5019633;28;20098;-65
2021/06/28 05:02:00;;;;;;;12.77;6.63;;;21.20;84.30;;;;;;5042740;28;20800;-64
2021/06/28 05:04:26;;;;;;;11.15;6.53;;;21.30;84.10;;;;;;5039430;28;20541;-68
2021/06/28 05:06:52;;;;;;;11.73;6.55;;;21.30;84.30;;;;;;5021228;28;20032;-68
2021/06/28 05:09:18;;;;;;;13.23;6.15;;;21.50;83.60;;;;;;5019456;28;20502;-67
2021/06/28 05:11:44;;;;;;;11.95;5.72;;;21.60;81.80;;;;;;5037727;28;20025;-67
2021/06/28 05:14:11;;;;;;;9.05;5.55;;;21.70;81.30;;;;;;5028370;28;20371;-66
2021/06/28 05:16:36;;;;;;;13.18;5.78;;;21.80;81.10;;;;;;5046392;28;20033;-66
2021/06/28 05:19:03;;;;;;;9.02;5.20;;;21.90;81.40;;;;;;5027871;28;20052;-66
2021/06/28 05:21:28;;;;;;;14.43;6.20;;;22.00;81.10;;;;;;5028494;28;20791;-68
2021/06/28 05:23:54;;;;;;;9.75;6.03;;;22.00;82.50;;;;;;5025069;28;20044;-66
2021/06/28 05:26:20;;;;;;;10.23;5.30;;;22.00;81.60;;;;;;5028094;28;20057;-67
2021/06/28 05:28:45;;;;;;;10.07;6.05;;;22.00;81.70;;;;;;5028301;28;20025;-68
2021/06/28 05:31:11;;;;;;;9.60;5.72;;;22.00;81.90;;;;;;5029061;28;20025;-67
2021/06/28 05:33:36;;;;;;;9.60;6.45;;;22.00;82.10;;;;;;5028578;28;20498;-66
2021/06/28 05:36:02;;;;;;;13.60;5.80;;;22.00;83.00;;;;;;5026873;28;20028;-67
2021/06/28 05:38:27;;;;;;;13.80;6.47;;;22.00;83.20;;;;;;5027932;28;20021;-68
2021/06/28 05:40:53;;;;;;;11.88;6.00;;;22.00;83.80;;;;;;5027073;28;20040;-67
2021/06/28 05:43:19;;;;;;;12.52;5.90;;;22.10;82.20;;;;;;5020101;28;20112;-63
2021/06/28 05:45:44;;;;;;;10.82;6.00;;;22.20;81.50;;;;;;5017137;28;20144;-67
2021/06/28 05:48:10;;;;;;;8.77;5.38;;;22.30;80.50;;;;;;5035995;28;20883;-67
2021/06/28 05:50:35;;;;;;;10.32;6.13;;;22.30;81.00;;;;;;5015590;28;20028;-68
2021/06/28 05:53:02;;;;;;;9.98;6.10;;;22.40;80.10;;;;;;5033725;28;20029;-67
2021/06/28 05:55:28;;;;;;;9.48;5.97;;;22.40;80.00;;;;;;5016982;28;20056;-68
2021/06/28 05:57:54;;;;;;;9.65;5.80;;;22.40;80.20;;;;;;5018159;28;20057;-71
2021/06/28 06:00:22;;;;;;;10.68;5.85;;;22.50;78.50;;;;;;5026577;28;20056;-71
2021/06/28 06:02:47;;;;;;;10.98;6.13;;;22.60;78.80;;;;;;5046343;28;20476;-70
2021/06/28 06:05:13;;;;;;;9.80;5.85;;;22.70;77.40;;;;;;5045987;28;20040;-73
2021/06/28 06:07:39;;;;;;;9.25;5.88;;;22.70;76.80;;;;;;5045841;28;20017;-69
2021/06/28 06:10:10;;;;;;;10.73;5.93;;;22.80;76.80;;;;;;5028376;28;20055;-71
2021/06/28 06:12:35;;;;;;;8.90;4.90;;;22.90;76.00;;;;;;5013664;28;20025;-67
2021/06/28 06:15:01;;;;;;;7.28;5.00;;;22.90;75.20;;;;;;5014621;28;20059;-67
2021/06/28 06:17:27;;;;;;;9.07;5.57;;;23.00;75.50;;;;;;5035161;28;20017;-67
2021/06/28 06:19:52;;;;;;;11.32;5.72;;;23.00;74.80;;;;;;5039281;28;20027;-66
2021/06/28 06:22:18;;;;;;;10.40;5.45;;;23.10;75.10;;;;;;5044885;28;20513;-66
2021/06/28 06:24:43;;;;;;;10.00;5.22;;;23.10;74.60;;;;;;5045159;28;20056;-66
2021/06/28 06:27:09;;;;;;;7.10;4.93;;;23.20;74.20;;;;;;5038529;28;20500;-65
2021/06/28 06:29:36;;;;;;;9.13;5.30;;;23.20;72.70;;;;;;5031961;28;20029;-67
2021/06/28 06:32:01;;;;;;;8.13;4.82;;;23.40;73.60;;;;;;5014539;28;20029;-67
2021/06/28 06:34:27;;;;;;;7.35;5.30;;;23.50;72.30;;;;;;5036283;28;20025;-67
2021/06/28 06:36:53;;;;;;;9.27;4.75;;;23.50;70.60;;;;;;5032867;28;20359;-65
2021/06/28 06:39:19;;;;;;;7.88;5.30;;;23.50;69.60;;;;;;5024366;28;20037;-66
2021/06/28 06:41:45;;;;;;;7.78;5.20;;;23.50;68.70;;;;;;5021514;28;20107;-65
2021/06/28 06:44:12;;;;;;;7.10;4.68;;;23.60;68.60;;;;;;5022469;28;20057;-68
2021/06/28 06:46:38;;;;;;;7.72;4.28;;;23.70;68.30;;;;;;5044115;28;20048;-67
2021/06/28 06:49:04;;;;;;;9.18;4.78;;;24.00;67.70;;;;;;5027922;28;20611;-66
2021/06/28 06:51:30;;;;;;;6.97;4.88;;;24.00;66.40;;;;;;5027813;28;20055;-66
2021/06/28 06:53:55;;;;;;;7.90;4.80;;;24.10;66.80;;;;;;5028000;28;20479;-66
2021/06/28 06:56:21;;;;;;;6.43;4.43;;;24.10;67.10;;;;;;5045809;28;20106;-65
2021/06/28 06:58:46;;;;;;;6.40;4.40;;;24.20;66.80;;;;;;5027636;28;20025;-66
2021/06/28 07:01:16;;;;;;;6.63;4.47;;;24.30;68.30;;;;;;5045949;28;20061;-68
2021/06/28 07:03:42;;;;;;;7.50;4.55;;;24.40;66.90;;;;;;5027810;28;20112;-68
2021/06/28 07:06:08;;;;;;;7.15;4.38;;;24.40;68.50;;;;;;5027801;28;20021;-68
2021/06/28 07:08:35;;;;;;;7.15;4.55;;;24.50;66.70;;;;;;5045028;28;20607;-67
2021/06/28 07:11:01;;;;;;;8.95;4.47;;;24.60;65.60;;;;;;5044050;28;20021;-66
2021/06/28 07:13:27;;;;;;;7.60;4.47;;;24.60;64.70;;;;;;5027616;28;20025;-67
2021/06/28 07:15:53;;;;;;;7.53;4.45;;;24.70;65.40;;;;;;5027570;28;20044;-68
2021/06/28 07:18:18;;;;;;;6.20;4.10;;;24.70;64.60;;;;;;5031538;28;20036;-68
2021/06/28 07:20:44;;;;;;;6.32;3.90;;;24.80;64.00;;;;;;5047119;28;20474;-68
2021/06/28 07:23:09;;;;;;;10.45;4.15;;;24.80;65.40;;;;;;5039980;28;20268;-68
2021/06/28 07:25:35;;;;;;;6.90;4.10;;;24.90;65.00;;;;;;5036820;28;20407;-67
2021/06/28 07:28:02;;;;;;;8.20;4.70;;;24.90;64.10;;;;;;5022495;28;20410;-69
2021/06/28 07:30:27;;;;;;;8.25;4.20;;;24.90;65.30;;;;;;5034174;28;20059;-68
2021/06/28 07:32:53;;;;;;;8.63;4.57;;;24.90;64.80;;;;;;5041135;28;20066;-67
2021/06/28 07:35:19;;;;;;;7.43;4.35;;;24.90;65.00;;;;;;5044474;28;20064;-67
2021/06/28 07:37:44;;;;;;;6.40;3.70;;;24.70;65.80;;;;;;5046022;28;20033;-65
2021/06/28 07:40:13;;;;;;;6.57;3.90;;;24.80;65.40;;;;;;5041229;28;20056;-69
2021/06/28 07:42:39;;;;;;;6.47;3.92;;;24.90;64.90;;;;;;5022861;28;20036;-68
2021/06/28 07:45:07;;;;;;;6.00;3.83;;;25.00;64.50;;;;;;5018117;28;20033;-68
2021/06/28 07:47:33;;;;;;;6.13;3.92;;;25.10;64.40;;;;;;5031159;28;20137;-71
2021/06/28 07:49:59;;;;;;;7.30;4.32;;;25.10;63.70;;;;;;5032040;28;20109;-68
2021/06/28 07:52:26;;;;;;;7.60;4.63;;;25.00;65.10;;;;;;5023152;28;21178;-67
2021/06/28 07:54:52;;;;;;;7.40;4.45;;;25.20;65.30;;;;;;5040933;28;20513;-69
2021/06/28 07:57:18;;;;;;;6.95;4.50;;;25.40;64.60;;;;;;5029041;28;20033;-65
2021/06/28 07:59:44;;;;;;;6.72;4.53;;;25.20;64.40;;;;;;5048022;28;20039;-68
2021/06/28 08:02:10;;;;;;;7.78;4.47;;;25.20;64.60;;;;;;5048758;28;20033;-68
2021/06/28 08:04:35;;;;;;;6.40;4.45;;;25.30;64.80;;;;;;5028428;28;20074;-66
2021/06/28 08:07:01;;;;;;;7.20;4.38;;;25.20;66.30;;;;;;5029845;28;20033;-68
2021/06/28 08:09:26;;;;;;;7.45;4.32;;;25.20;65.00;;;;;;5029817;28;20021;-68
2021/06/28 08:11:56;;;;;;;7.13;5.00;;;25.30;64.50;;;;;;5029974;28;20029;-66
2021/06/28 08:14:22;;;;;;;6.63;4.68;;;25.30;65.80;;;;;;5030692;28;20029;-68
2021/06/28 08:16:47;;;;;;;9.38;4.68;;;25.40;64.00;;;;;;5030000;28;20035;-67
2021/06/28 08:19:13;;;;;;;7.82;4.45;;;25.40;64.00;;;;;;5029937;28;20095;-68
2021/06/28 08:21:40;;;;;;;6.47;4.43;;;25.40;64.90;;;;;;5029158;28;20394;-66
2021/06/28 08:24:07;;;;;;;6.47;4.35;;;25.60;64.80;;;;;;5028861;28;20609;-68
2021/06/28 08:26:33;;;;;;;7.28;4.32;;;25.60;64.20;;;;;;5028741;28;20121;-68
2021/06/28 08:29:03;;;;;;;8.05;3.92;;;25.80;63.80;;;;;;5026726;28;20549;-67
2021/06/28 08:31:29;;;;;;;6.97;3.83;;;25.80;64.30;;;;;;5028650;28;20082;-68
2021/06/28 08:33:54;;;;;;;7.60;4.10;;;25.80;63.00;;;;;;5028781;28;20124;-68
2021/06/28 08:36:20;;;;;;;7.55;4.60;;;25.70;62.50;;;;;;5029254;28;20124;-69
2021/06/28 08:38:45;;;;;;;6.78;4.15;;;25.80;64.10;;;;;;5028708;28;20053;-68
2021/06/28 08:41:16;;;;;;;7.90;4.28;;;25.90;63.30;;;;;;5029566;28;20498;-64
2021/06/28 08:43:46;;;;;;;5.95;4.10;;;26.00;62.30;;;;;;5029697;28;20098;-68
2021/06/28 08:46:16;;;;;;;6.95;4.55;;;25.90;62.10;;;;;;5030285;28;20037;-68
2021/06/28 08:48:46;;;;;;;5.97;4.20;;;26.00;62.10;;;;;;5030083;28;20052;-68
2021/06/28 08:51:12;;;;;;;6.45;4.13;;;26.10;61.70;;;;;;5030094;28;20064;-68
2021/06/28 08:53:38;;;;;;;6.10;4.05;;;26.10;62.20;;;;;;5029977;28;20017;-67
2021/06/28 08:56:08;;;;;;;6.65;4.50;;;26.00;62.10;;;;;;5030023;28;20086;-68
2021/06/28 08:58:34;;;;;;;5.78;4.10;;;26.00;62.60;;;;;;5029361;28;20029;-68
2021/06/28 09:01:00;;;;;;;6.50;4.30;;;26.20;62.10;;;;;;5029833;28;20021;-68
2021/06/28 09:03:26;;;;;;;7.75;4.60;;;26.30;61.90;;;;;;5029974;28;20028;-67
2021/06/28 09:05:53;;;;;;;8.23;4.30;;;26.20;61.90;;;;;;5029706;28;20394;-68
2021/06/28 09:08:20;;;;;;;6.05;4.30;;;26.20;61.70;;;;;;5029098;28;20021;-70
2021/06/28 09:10:46;;;;;;;6.68;4.35;;;26.10;62.00;;;;;;5028932;28;20220;-65
2021/06/28 09:13:12;;;;;;;7.10;4.22;;;26.10;62.00;;;;;;5028843;28;20044;-68
2021/06/28 09:15:50;;;;;;;6.30;4.38;;;26.20;62.20;;;;;;5028625;28;20387;-67
2021/06/28 09:18:26;;;;;;;6.55;4.60;;;26.30;61.80;;;;;;5028499;28;20025;-68
2021/06/28 09:21:08;;;;;;;5.95;4.40;;;26.50;60.80;;;;;;5029129;28;20025;-67
2021/06/28 09:23:38;;;;;;;6.95;4.32;;;26.50;61.00;;;;;;5028180;28;20036;-69
2021/06/28 09:26:14;;;;;;;6.47;4.28;;;26.40;61.40;;;;;;5029052;28;20086;-69
2021/06/28 09:28:43;;;;;;;7.47;4.80;;;26.60;62.00;;;;;;5028570;28;20028;-70
2021/06/28 09:31:15;;;;;;;7.00;4.65;;;26.50;62.00;;;;;;5029166;28;20025;-67
2021/06/28 09:33:41;;;;;;;6.75;4.55;;;26.60;61.50;;;;;;5028801;28;20287;-66
2021/06/28 09:36:43;;;;;;;7.63;5.07;;;26.60;61.50;;;;;;5027690;28;20017;-65
2021/06/28 09:39:23;;;;;;;6.82;4.78;;;26.60;61.00;;;;;;4962303;28;21254;-66
2021/06/28 09:41:49;;;;;;;6.88;4.85;;;26.50;61.70;;;;;;5028315;28;20033;-69
2021/06/28 09:44:14;;;;;;;7.53;4.30;;;26.60;62.00;;;;;;5028294;28;20031;-66
2021/06/28 09:46:40;;;;;;;9.05;4.82;;;26.60;62.00;;;;;;5028452;28;20025;-68
2021/06/28 09:49:13;;;;;;;7.65;4.93;;;26.50;62.30;;;;;;5028266;28;20414;-67
2021/06/28 09:51:38;;;;;;;10.85;5.20;;;26.60;62.30;;;;;;5028450;28;20052;-68
2021/06/28 09:54:14;;;;;;;7.45;5.13;;;26.60;62.20;;;;;;5045939;28;20118;-69
2021/06/28 09:56:50;;;;;;;7.05;5.43;;;26.30;63.40;;;;;;5045226;28;20525;-65
2021/06/28 09:59:33;;;;;;;7.15;5.53;;;26.30;64.10;;;;;;5046148;28;20074;-64
2021/06/28 10:02:16;;;;;;;7.97;5.75;;;26.20;64.60;;;;;;5045899;28;20402;-67
2021/06/28 10:04:56;;;;;;;7.72;5.47;;;26.00;65.00;;;;;;5028093;28;20043;-67
2021/06/28 10:07:23;;;;;;;8.60;5.55;;;25.90;64.40;;;;;;5044263;28;20097;-67
2021/06/28 10:10:24;;;;;;;8.90;5.50;;;25.90;64.30;;;;;;5023349;28;20029;-66
2021/06/28 10:12:52;;;;;;;7.88;5.80;;;25.80;64.70;;;;;;5045714;28;20021;-66
2021/06/28 10:15:21;;;;;;;8.27;5.00;;;25.80;64.80;;;;;;5045549;28;20029;-66
2021/06/28 10:17:48;;;;;;;7.63;5.55;;;25.80;65.40;;;;;;5045909;28;20033;-68
2021/06/28 10:20:19;;;;;;;7.60;5.32;;;25.80;65.70;;;;;;5046288;28;20092;-68
2021/06/28 10:22:46;;;;;;;7.07;4.88;;;25.70;65.50;;;;;;5046569;28;20113;-68
2021/06/28 10:25:14;;;;;;;7.65;4.90;;;25.70;65.50;;;;;;5045979;28;20788;-66
2021/06/28 10:27:41;;;;;;;7.85;4.20;;;25.70;65.30;;;;;;5027767;28;20048;-67
2021/06/28 10:30:10;;;;;;;6.63;4.38;;;25.70;65.20;;;;;;5044689;28;20021;-68
2021/06/28 10:32:37;;;;;;;6.65;4.63;;;25.60;65.30;;;;;;5045997;28;20029;-66
2021/06/28 10:35:04;;;;;;;6.72;4.18;;;25.60;64.90;;;;;;5028486;28;20068;-65
2021/06/28 10:37:46;;;;;;;6.82;4.20;;;25.60;64.50;;;;;;5027439;28;20036;-68
2021/06/28 10:40:17;;;;;;;8.75;4.88;;;25.60;64.30;;;;;;5029370;28;20036;-68
2021/06/28 10:42:47;;;;;;;7.20;4.17;;;25.60;64.50;;;;;;5048094;28;20457;-70
2021/06/28 10:45:15;;;;;;;9.00;4.85;;;25.60;64.80;;;;;;5041370;28;20330;-66
2021/06/28 10:47:57;;;;;;;9.15;4.75;;;25.50;64.90;;;;;;5042636;28;20029;-68
2021/06/28 10:50:23;;;;;;;6.22;4.38;;;25.60;65.90;;;;;;5027684;28;20083;-67
2021/06/28 10:52:49;;;;;;;6.63;4.50;;;25.50;66.30;;;;;;5044986;28;20442;-66
2021/06/28 10:55:17;;;;;;;6.35;4.30;;;25.40;66.30;;;;;;5028196;28;20021;-66
2021/06/28 10:57:47;;;;;;;8.50;4.40;;;25.50;67.00;;;;;;5027180;28;20115;-66
2021/06/28 11:00:14;;;;;;;6.50;4.55;;;25.40;67.90;;;;;;5021504;28;20060;-69
2021/06/28 11:02:41;;;;;;;7.40;4.43;;;25.50;68.10;;;;;;5025478;28;20394;-69
2021/06/28 11:05:09;;;;;;;11.90;4.60;;;25.50;67.30;;;;;;5007696;28;20368;-69
2021/06/28 11:08:19;;;;;;;6.00;4.30;;;25.50;68.10;;;;;;5008655;28;20026;-73
2021/06/28 11:10:44;;;;;;;6.50;4.30;;;25.40;68.30;;;;;;5015888;28;20379;-67
2021/06/28 11:13:36;;;;;;;6.75;4.70;;;25.40;68.80;;;;;;5046079;28;20017;-66
2021/06/28 11:16:30;;;;;;;7.70;4.82;;;25.50;68.60;;;;;;5034972;28;20021;-68
2021/06/28 11:18:56;;;;;;;6.90;4.15;;;25.40;68.90;;;;;;5044335;28;20382;-66
2021/06/28 11:21:41;;;;;;;6.53;4.30;;;25.40;69.00;;;;;;5051362;28;20021;-68
2021/06/28 11:24:07;;;;;;;6.35;4.40;;;25.40;69.20;;;;;;5027953;28;20052;-69
2021/06/28 11:26:37;;;;;;;6.45;4.28;;;25.30;69.50;;;;;;5050554;28;20017;-68
2021/06/28 11:29:03;;;;;;;6.40;4.50;;;25.30;69.30;;;;;;5050322;28;20487;-67
2021/06/28 11:31:31;;;;;;;6.50;4.30;;;25.30;69.30;;;;;;5051892;28;20040;-68
2021/06/28 11:33:59;;;;;;;8.07;4.30;;;25.20;69.60;;;;;;5051974;28;20082;-67
2021/06/28 11:36:29;;;;;;;6.55;4.65;;;25.20;69.70;;;;;;5033837;28;20048;-67
2021/06/28 11:39:00;;;;;;;8.68;4.57;;;25.20;69.90;;;;;;5033606;28;20029;-68
2021/06/28 11:41:27;;;;;;;;;;;25.20;69.90;;;;;;5052170;28;20029;-67
2021/06/28 11:44:01;;;;;;;7.57;4.55;;;25.20;70.00;;;;;;5051738;28;19916;-68
2021/06/28 11:46:29;;;;;;;6.10;4.40;;;25.20;70.20;;;;;;5051589;28;20021;-67
2021/06/28 11:48:57;;;;;;;6.32;4.35;;;25.20;70.30;;;;;;5051296;28;20025;-68
2021/06/28 11:51:28;;;;;;;7.88;5.00;;;25.20;70.80;;;;;;5033537;28;20383;-67
2021/06/28 11:53:56;;;;;;;7.95;5.25;;;25.20;70.80;;;;;;5051533;28;20029;-68
2021/06/28 11:56:34;;;;;;;7.78;5.03;;;25.30;70.50;;;;;;5051864;28;20033;-68
2021/06/28 11:59:08;;;;;;;7.82;5.28;;;25.30;69.90;;;;;;5051933;28;20027;-69
2021/06/28 12:01:40;;;;;;;7.07;5.20;;;25.40;70.30;;;;;;5034101;28;20394;-67
2021/06/28 12:04:08;;;;;;;7.97;5.60;;;25.40;69.60;;;;;;5037077;28;20035;-65
2021/06/28 12:06:35;;;;;;;7.28;4.93;;;25.40;68.00;;;;;;5055549;28;20110;-68
2021/06/28 12:09:05;;;;;;;7.35;5.18;;;25.40;67.10;;;;;;5037601;28;20028;-67
2021/06/28 12:11:31;;;;;;;8.32;5.80;;;25.40;67.80;;;;;;5037113;28;20040;-68
2021/06/28 12:13:57;;;;;;;9.25;5.35;;;25.40;68.30;;;;;;5053831;28;20478;-63
2021/06/28 12:16:25;;;;;;;10.15;5.60;;;25.40;68.30;;;;;;5054782;28;20033;-68
2021/06/28 12:19:09;;;;;;;8.02;5.25;;;25.40;68.50;;;;;;5036805;28;20032;-67
2021/06/28 12:21:38;;;;;;;10.20;5.15;;;25.40;69.00;;;;;;5037339;28;20504;-68
2021/06/28 12:24:07;;;;;;;7.32;5.28;;;25.40;67.70;;;;;;5036898;28;20021;-68
2021/06/28 12:26:34;;;;;;;7.38;5.45;;;25.40;67.00;;;;;;5054529;28;20546;-65
2021/06/28 12:29:25;;;;;;;6.80;4.68;;;25.40;68.00;;;;;;5036933;28;20120;-68
2021/06/28 12:31:57;;;;;;;6.35;4.35;;;25.40;65.70;;;;;;5054661;28;20474;-67
2021/06/28 12:34:23;;;;;;;7.63;4.68;;;25.40;66.20;;;;;;5036992;28;20037;-68
2021/06/28 12:36:50;;;;;;;6.43;4.50;;;25.30;65.70;;;;;;5053227;28;20025;-66
2021/06/28 12:39:27;;;;;;;6.95;4.43;;;25.30;64.60;;;;;;5036556;28;20115;-67
2021/06/28 12:41:53;;;;;;;8.30;5.13;;;25.30;64.50;;;;;;5054263;28;20106;-66
2021/06/28 12:44:20;;;;;;;7.00;4.45;;;25.30;64.60;;;;;;5054570;28;20116;-68
2021/06/28 12:46:47;;;;;;;7.30;5.10;;;25.30;64.80;;;;;;5036551;28;20025;-68
2021/06/28 12:49:17;;;;;;;7.30;5.40;;;25.20;65.30;;;;;;5054417;28;20024;-68